createdAt,value
2022-11-05T00:01:51.083Z,50.76
2022-11-05T00:04:17.563Z,50.51
2022-11-05T00:06:44.182Z,51.57
2022-11-05T00:09:10.708Z,51.17
2022-11-05T00:11:37.306Z,52.08
2022-11-05T00:14:03.847Z,51.22
2022-11-05T00:16:30.259Z,50.59
2022-11-05T00:18:56.630Z,51.13
2022-11-05T00:21:23.156Z,50.10
2022-11-05T00:23:50.152Z,49.84
2022-11-05T00:26:16.829Z,49.95
2022-11-05T00:28:43.202Z,50.23
2022-11-05T00:31:11.545Z,49.09
2022-11-05T00:33:38.021Z,50.78
2022-11-05T00:36:04.429Z,51.20
2022-11-05T00:38:33.204Z,50.95
2022-11-05T00:41:01.691Z,50.18
2022-11-05T00:43:28.156Z,50.78
2022-11-05T00:45:54.944Z,50.82
2022-11-05T00:48:21.799Z,49.27
2022-11-05T00:50:48.291Z,48.96
2022-11-05T00:53:15.255Z,49.75
2022-11-05T00:55:41.735Z,50.92
2022-11-05T00:58:10.555Z,50.91
2022-11-05T01:00:37.765Z,50.96
2022-11-05T01:03:06.534Z,49.74
2022-11-05T01:05:33.973Z,50.04
2022-11-05T01:08:00.542Z,50.13
2022-11-05T01:10:26.988Z,49.75
2022-11-05T01:12:53.479Z,51.15
2022-11-05T01:15:20.156Z,49.98
2022-11-05T01:17:46.502Z,49.28
2022-11-05T01:20:12.993Z,48.56
2022-11-05T01:22:39.582Z,48.29
2022-11-05T01:25:05.973Z,50.31
2022-11-05T01:27:32.418Z,49.47
2022-11-05T01:29:59.301Z,49.71
2022-11-05T01:32:25.753Z,49.48
2022-11-05T01:34:52.246Z,49.03
2022-11-05T01:37:18.901Z,49.12
2022-11-05T01:39:45.764Z,49.66
2022-11-05T01:42:12.321Z,49.26
2022-11-05T01:44:41.422Z,48.66
2022-11-05T01:47:12.450Z,48.31
2022-11-05T01:49:39.326Z,48.81
2022-11-05T01:52:06.236Z,49.08
2022-11-05T01:54:32.876Z,48.76
2022-11-05T01:57:00.271Z,49.15
2022-11-05T01:59:26.781Z,48.67
2022-11-05T02:01:53.296Z,48.15
2022-11-05T02:04:20.874Z,48.74
2022-11-05T02:06:47.696Z,47.83
2022-11-05T02:09:14.182Z,47.84
2022-11-05T02:11:41.055Z,47.94
2022-11-05T02:14:07.811Z,48.37
2022-11-05T02:16:34.596Z,47.88
2022-11-05T02:19:02.122Z,48.33
2022-11-05T02:21:29.568Z,47.96
2022-11-05T02:23:57.176Z,48.28
2022-11-05T02:26:23.618Z,49.12
2022-11-05T02:28:51.100Z,48.78
2022-11-05T02:31:17.697Z,49.08
2022-11-05T02:33:44.369Z,48.58
2022-11-05T02:36:11.138Z,49.10
2022-11-05T02:38:37.760Z,49.25
2022-11-05T02:41:04.413Z,49.03
2022-11-05T02:43:31.246Z,48.95
2022-11-05T02:45:57.990Z,48.73
2022-11-05T02:48:24.738Z,48.55
2022-11-05T02:50:54.148Z,48.30
2022-11-05T02:53:21.668Z,48.71
2022-11-05T02:55:48.142Z,48.54
2022-11-05T02:58:15.234Z,49.02
2022-11-05T03:00:41.760Z,48.89
2022-11-05T03:03:08.759Z,48.22
2022-11-05T03:05:35.595Z,48.74
2022-11-05T03:08:02.397Z,50.14
2022-11-05T03:10:28.958Z,50.27
2022-11-05T03:12:55.470Z,49.41
2022-11-05T03:15:21.850Z,49.06
2022-11-05T03:17:48.238Z,49.96
2022-11-05T03:20:14.924Z,49.65
2022-11-05T03:22:42.388Z,48.84
2022-11-05T03:25:08.775Z,48.88
2022-11-05T03:27:35.235Z,48.85
2022-11-05T03:30:01.686Z,49.08
2022-11-05T03:32:28.378Z,48.00
2022-11-05T03:34:54.851Z,48.69
2022-11-05T03:37:21.277Z,48.65
2022-11-05T03:39:47.789Z,48.19
2022-11-05T03:42:14.319Z,47.79
2022-11-05T03:44:40.827Z,48.65
2022-11-05T03:47:07.197Z,48.67
2022-11-05T03:49:33.933Z,49.39
2022-11-05T03:52:00.424Z,50.44
2022-11-05T03:54:26.798Z,49.64
2022-11-05T03:56:53.544Z,49.21
2022-11-05T03:59:19.969Z,48.32
2022-11-05T04:01:46.699Z,50.48
2022-11-05T04:04:13.576Z,49.84
2022-11-05T04:06:39.967Z,50.22
2022-11-05T04:09:06.405Z,49.91
2022-11-05T04:11:32.999Z,49.54
2022-11-05T04:13:59.383Z,50.70
2022-11-05T04:16:25.929Z,50.09
2022-11-05T04:18:52.488Z,50.38
2022-11-05T04:21:18.957Z,51.09
2022-11-05T04:23:45.476Z,49.76
2022-11-05T04:26:12.106Z,50.38
2022-11-05T04:28:38.512Z,49.51
2022-11-05T04:31:04.953Z,49.77
2022-11-05T04:33:31.576Z,50.97
2022-11-05T04:35:58.075Z,51.27
2022-11-05T04:38:24.631Z,50.62
2022-11-05T04:40:51.098Z,50.24
2022-11-05T04:43:17.864Z,49.88
2022-11-05T04:45:44.748Z,49.95
2022-11-05T04:48:11.559Z,49.59
2022-11-05T04:50:38.081Z,49.59
2022-11-05T04:53:04.526Z,49.20
2022-11-05T04:55:31.184Z,49.55
2022-11-05T04:57:57.800Z,51.63
2022-11-05T05:00:24.467Z,50.19
2022-11-05T05:02:50.945Z,50.50
2022-11-05T05:05:17.414Z,49.99
2022-11-05T05:07:44.547Z,49.95
2022-11-05T05:10:11.435Z,50.21
2022-11-05T05:12:37.885Z,50.32
2022-11-05T05:15:04.342Z,49.84
2022-11-05T05:17:30.765Z,50.82
2022-11-05T05:19:57.219Z,51.25
2022-11-05T05:22:23.747Z,51.35
2022-11-05T05:24:53.007Z,52.01
2022-11-05T05:27:19.679Z,50.71
2022-11-05T05:29:46.184Z,51.88
2022-11-05T05:32:12.586Z,51.17
2022-11-05T05:34:39.014Z,51.94
2022-11-05T05:37:05.932Z,50.41
2022-11-05T05:39:32.333Z,51.48
2022-11-05T05:41:59.020Z,50.64
2022-11-05T05:44:25.403Z,50.40
2022-11-05T05:46:52.131Z,51.22
2022-11-05T05:49:18.842Z,51.36
2022-11-05T05:51:45.372Z,50.67
2022-11-05T05:54:11.896Z,50.17
2022-11-05T05:56:38.328Z,50.50
2022-11-05T05:59:04.789Z,49.53
2022-11-05T06:01:32.267Z,49.72
2022-11-05T06:03:58.928Z,51.95
2022-11-05T06:06:25.749Z,51.48
2022-11-05T06:08:52.609Z,52.61
2022-11-05T06:11:19.271Z,51.66
2022-11-05T06:13:45.720Z,51.39
2022-11-05T06:16:12.504Z,52.88
2022-11-05T06:18:38.888Z,53.07
2022-11-05T06:21:06.469Z,52.17
2022-11-05T06:23:33.308Z,51.76
2022-11-05T06:25:59.747Z,52.13
2022-11-05T06:28:26.339Z,51.53
2022-11-05T06:30:53.093Z,51.99
2022-11-05T06:33:19.458Z,50.95
2022-11-05T06:35:46.031Z,52.20
2022-11-05T06:38:12.857Z,51.99
2022-11-05T06:40:39.308Z,52.34
2022-11-05T06:43:05.785Z,51.11
2022-11-05T06:45:34.418Z,51.43
2022-11-05T06:48:00.919Z,51.22
2022-11-05T06:50:27.356Z,50.90
2022-11-05T06:52:54.159Z,50.93
2022-11-05T06:55:20.824Z,51.07
2022-11-05T06:57:47.189Z,51.19
2022-11-05T07:00:13.879Z,51.42
2022-11-05T07:02:40.461Z,51.94
2022-11-05T07:05:07.155Z,50.64
2022-11-05T07:07:33.758Z,50.51
2022-11-05T07:10:00.283Z,51.36
2022-11-05T07:12:26.771Z,50.87
2022-11-05T07:14:53.431Z,51.52
2022-11-05T07:17:19.895Z,50.99
2022-11-05T07:19:46.533Z,51.36
2022-11-05T07:22:13.125Z,52.00
2022-11-05T07:24:39.869Z,50.56
2022-11-05T07:27:06.551Z,50.56
2022-11-05T07:29:34.571Z,52.02
2022-11-05T07:32:01.001Z,50.79
2022-11-05T07:34:27.576Z,50.17
2022-11-05T07:36:55.846Z,49.87
2022-11-05T07:39:22.414Z,50.15
2022-11-05T07:41:48.924Z,50.07
2022-11-05T07:44:16.173Z,51.45
2022-11-05T07:46:42.640Z,51.17
2022-11-05T07:49:09.152Z,50.88
2022-11-05T07:51:35.960Z,51.15
2022-11-05T07:54:02.440Z,51.12
2022-11-05T07:56:29.281Z,50.29
2022-11-05T07:58:56.179Z,49.79
2022-11-05T08:01:25.876Z,50.73
2022-11-05T08:03:53.294Z,51.10
2022-11-05T08:06:22.083Z,50.58
2022-11-05T08:08:48.611Z,49.67
2022-11-05T08:11:16.503Z,49.38
2022-11-05T08:13:43.333Z,50.13
2022-11-05T08:16:12.064Z,49.95
2022-11-05T08:18:38.621Z,49.87
2022-11-05T08:21:06.323Z,50.76
2022-11-05T08:23:33.768Z,52.06
2022-11-05T08:26:00.487Z,50.57
2022-11-05T08:28:27.028Z,50.08
2022-11-05T08:30:53.540Z,50.41
2022-11-05T08:33:20.000Z,49.71
2022-11-05T08:35:47.001Z,50.47
2022-11-05T08:38:13.556Z,50.68
2022-11-05T08:40:40.226Z,50.51
2022-11-05T08:43:06.686Z,51.57
2022-11-05T08:45:33.144Z,50.87
2022-11-05T08:47:59.606Z,51.07
2022-11-05T08:50:26.047Z,49.87
2022-11-05T08:52:52.439Z,50.33
2022-11-05T08:55:19.329Z,50.93
2022-11-05T08:57:45.840Z,51.61
2022-11-05T09:00:12.531Z,50.01
2022-11-05T09:02:39.149Z,50.42
2022-11-05T09:05:05.775Z,50.34
2022-11-05T09:07:32.408Z,49.42
2022-11-05T09:09:58.895Z,50.49
2022-11-05T09:12:25.554Z,50.38
2022-11-05T09:14:52.064Z,49.68
2022-11-05T09:17:18.575Z,50.07
2022-11-05T09:19:45.343Z,48.86
2022-11-05T09:22:11.883Z,49.58
2022-11-05T09:24:38.372Z,51.02
2022-11-05T09:27:05.332Z,50.59
2022-11-05T09:29:34.831Z,51.19
2022-11-05T09:32:01.238Z,51.23
2022-11-05T09:34:27.826Z,50.11
2022-11-05T09:36:54.554Z,49.45
2022-11-05T09:39:21.951Z,52.14
2022-11-05T09:41:48.647Z,50.43
2022-11-05T09:44:15.259Z,50.06
2022-11-05T09:46:41.708Z,50.28
2022-11-05T09:49:08.384Z,50.97
2022-11-05T09:51:35.806Z,50.96
2022-11-05T09:54:02.465Z,52.25
2022-11-05T09:56:29.091Z,51.37
2022-11-05T09:58:55.664Z,51.27
2022-11-05T10:01:22.364Z,49.64
2022-11-05T10:03:49.316Z,49.71
2022-11-05T10:06:15.730Z,50.68
2022-11-05T10:08:42.191Z,50.85
2022-11-05T10:11:08.921Z,52.52
2022-11-05T10:13:35.390Z,51.18
2022-11-05T10:16:01.777Z,50.87
2022-11-05T10:18:28.302Z,51.41
2022-11-05T10:20:54.745Z,50.59
2022-11-05T10:23:21.188Z,50.95
2022-11-05T10:25:47.693Z,50.56
2022-11-05T10:28:14.208Z,51.31
2022-11-05T10:30:40.754Z,52.32
2022-11-05T10:33:07.249Z,51.54
2022-11-05T10:35:33.663Z,50.28
2022-11-05T10:37:59.999Z,52.23
2022-11-05T10:40:26.577Z,52.35
2022-11-05T10:42:52.966Z,51.99
2022-11-05T10:45:21.663Z,51.04
2022-11-05T10:47:48.384Z,50.86
2022-11-05T10:50:15.829Z,50.15
2022-11-05T10:52:42.231Z,50.08
2022-11-05T10:55:09.063Z,49.86
2022-11-05T10:57:35.602Z,49.79
2022-11-05T11:00:04.420Z,49.45
2022-11-05T11:02:32.075Z,51.13
2022-11-05T11:04:58.541Z,50.66
2022-11-05T11:07:24.975Z,50.15
2022-11-05T11:09:51.745Z,49.87
2022-11-05T11:12:18.153Z,48.92
2022-11-05T11:14:44.511Z,48.88
2022-11-05T11:17:11.045Z,49.13
2022-11-05T11:19:37.934Z,49.02
2022-11-05T11:22:04.369Z,50.70
2022-11-05T11:24:33.563Z,50.06
2022-11-05T11:27:01.275Z,49.10
2022-11-05T11:29:27.756Z,49.06
2022-11-05T11:45:39.589Z,52.22
2022-11-05T11:48:05.979Z,50.58
2022-11-05T11:50:32.367Z,50.73
2022-11-05T11:52:58.829Z,49.93
2022-11-05T11:55:25.242Z,50.44
2022-11-05T11:57:51.852Z,49.83
2022-11-05T12:00:18.688Z,50.91
2022-11-05T12:02:45.141Z,51.90
2022-11-05T12:05:11.539Z,50.29
2022-11-05T12:07:38.297Z,50.94
2022-11-05T12:10:04.895Z,51.17
2022-11-05T12:12:31.673Z,50.49
2022-11-05T12:14:58.340Z,50.02
2022-11-05T12:17:25.537Z,52.01
2022-11-05T12:19:52.021Z,53.84
2022-11-05T12:22:18.454Z,51.73
2022-11-05T12:24:44.831Z,51.06
2022-11-05T12:27:13.638Z,50.74
2022-11-05T12:29:40.161Z,50.02
2022-11-05T12:32:06.705Z,50.65
2022-11-05T12:34:34.151Z,49.67
2022-11-05T12:37:01.022Z,50.77
2022-11-05T12:39:27.430Z,52.84
2022-11-05T12:41:53.851Z,51.27
2022-11-05T12:44:23.514Z,49.81
2022-11-05T12:46:49.938Z,49.30
2022-11-05T12:49:18.832Z,48.86
2022-11-05T12:51:47.171Z,48.08
2022-11-05T12:54:13.592Z,48.31
2022-11-05T12:56:40.312Z,48.82
2022-11-05T12:59:07.109Z,50.04
2022-11-05T13:01:33.661Z,49.19
2022-11-05T13:04:00.112Z,50.48
2022-11-05T13:06:26.616Z,50.38
2022-11-05T13:08:53.171Z,49.84
2022-11-05T13:11:19.590Z,52.19
2022-11-05T13:13:46.371Z,50.91
2022-11-05T13:16:13.068Z,49.94
2022-11-05T13:18:39.826Z,49.60
2022-11-05T13:21:07.130Z,50.37
2022-11-05T13:23:33.779Z,50.49
2022-11-05T13:26:00.191Z,49.51
2022-11-05T13:28:26.789Z,50.46
2022-11-05T13:30:53.387Z,50.72
2022-11-05T13:33:19.797Z,50.74
2022-11-05T13:35:46.912Z,50.02
2022-11-05T13:38:13.312Z,50.13
2022-11-05T13:40:40.138Z,49.32
2022-11-05T13:43:07.211Z,49.00
2022-11-05T13:45:33.811Z,48.99
2022-11-05T13:48:00.210Z,49.96
2022-11-05T13:50:27.780Z,49.95
2022-11-05T13:52:54.466Z,48.43
2022-11-05T13:55:21.131Z,48.96
2022-11-05T13:57:47.905Z,48.42
2022-11-05T14:00:15.303Z,49.90
2022-11-05T14:02:42.240Z,49.64
2022-11-05T14:05:10.247Z,50.20
2022-11-05T14:07:36.606Z,50.56
2022-11-05T14:10:03.203Z,50.27
2022-11-05T14:12:29.790Z,48.92
2022-11-05T14:14:59.184Z,48.55
2022-11-05T14:17:25.996Z,50.45
2022-11-05T14:19:52.893Z,50.94
2022-11-05T14:22:19.747Z,50.71
2022-11-05T14:24:47.293Z,50.07
2022-11-05T14:27:15.518Z,49.98
2022-11-05T14:29:41.989Z,50.19
2022-11-05T14:32:09.813Z,49.26
2022-11-05T14:34:37.177Z,49.41
2022-11-05T14:37:03.571Z,48.89
2022-11-05T14:39:30.403Z,47.92
2022-11-05T14:41:57.127Z,49.17
2022-11-05T14:44:24.098Z,48.88
2022-11-05T14:46:50.511Z,48.83
2022-11-05T14:49:17.233Z,48.58
2022-11-05T14:51:43.584Z,48.99
2022-11-05T14:54:10.021Z,49.40
2022-11-05T14:56:36.718Z,49.77
2022-11-05T14:59:03.422Z,49.34
2022-11-05T15:01:31.350Z,49.41
2022-11-05T15:03:58.633Z,48.31
2022-11-05T15:06:25.119Z,49.96
2022-11-05T15:08:52.037Z,49.37
2022-11-05T15:11:18.976Z,50.27
2022-11-05T15:13:45.408Z,50.86
2022-11-05T15:16:11.756Z,49.89
2022-11-05T15:18:38.444Z,50.22
2022-11-05T15:21:08.240Z,50.97
2022-11-05T15:23:34.823Z,49.31
2022-11-05T15:26:01.633Z,49.51
2022-11-05T15:28:28.380Z,49.25
2022-11-05T15:30:55.231Z,48.08
2022-11-05T15:33:21.951Z,48.49
2022-11-05T15:35:48.672Z,49.86
2022-11-05T15:38:15.433Z,48.63
2022-11-05T15:40:42.932Z,50.23
2022-11-05T15:43:09.955Z,49.23
2022-11-05T15:45:36.609Z,49.82
2022-11-05T15:48:03.313Z,49.60
2022-11-05T15:50:29.997Z,49.82
2022-11-05T15:53:04.850Z,48.94
2022-11-05T15:55:41.255Z,49.07
2022-11-05T15:58:07.620Z,48.89
2022-11-05T16:00:34.007Z,48.70
2022-11-05T16:03:00.807Z,50.02
2022-11-05T16:05:27.529Z,51.61
2022-11-05T16:07:56.711Z,50.07
2022-11-05T16:10:23.283Z,49.89
2022-11-05T16:12:49.635Z,51.42
2022-11-05T16:15:16.391Z,51.56
2022-11-05T16:17:43.255Z,49.32
2022-11-05T16:20:09.969Z,51.01
2022-11-05T16:22:36.402Z,51.26
2022-11-05T16:25:03.393Z,50.77
2022-11-05T16:27:29.930Z,51.10
2022-11-05T16:29:56.878Z,50.84
2022-11-05T16:32:28.515Z,51.08
2022-11-05T16:34:56.543Z,49.29
2022-11-05T16:37:23.311Z,49.61
2022-11-05T16:39:50.459Z,51.69
2022-11-05T16:42:17.098Z,49.66
2022-11-05T16:44:43.700Z,49.53
2022-11-05T16:47:10.502Z,49.79
2022-11-05T16:49:37.034Z,49.49
2022-11-05T16:52:03.725Z,49.05
2022-11-05T16:54:30.818Z,50.20
2022-11-05T16:56:57.360Z,48.85
2022-11-05T16:59:23.907Z,50.09
2022-11-05T17:01:55.498Z,50.92
2022-11-05T17:04:22.461Z,49.36
2022-11-05T17:06:49.268Z,48.93
2022-11-05T17:09:17.150Z,48.72
2022-11-05T17:11:46.126Z,49.54
2022-11-05T17:14:16.281Z,50.05
2022-11-05T17:16:42.776Z,49.77
2022-11-05T17:19:09.454Z,49.30
2022-11-05T17:21:36.137Z,47.87
2022-11-05T17:24:03.669Z,47.96
2022-11-05T17:26:32.503Z,47.71
2022-11-05T17:28:58.872Z,48.72
2022-11-05T17:31:25.897Z,48.79
2022-11-05T17:33:52.467Z,47.94
2022-11-05T17:36:20.199Z,48.75
2022-11-05T17:38:48.262Z,49.25
2022-11-05T17:41:15.029Z,49.36
2022-11-05T17:43:41.799Z,49.85
2022-11-05T17:46:09.819Z,48.73
2022-11-05T17:48:36.436Z,48.36
2022-11-05T17:51:03.154Z,48.59
2022-11-05T17:53:30.543Z,48.87
2022-11-05T17:55:57.907Z,49.04
2022-11-05T17:58:24.643Z,48.13
2022-11-05T18:00:52.152Z,48.04
2022-11-05T18:03:19.055Z,47.27
2022-11-05T18:05:45.887Z,46.79
2022-11-05T18:08:15.687Z,46.94
2022-11-05T18:10:42.483Z,46.58
2022-11-05T18:13:08.917Z,46.89
2022-11-05T18:15:35.890Z,48.76
2022-11-05T18:18:02.771Z,49.88
2022-11-05T18:20:29.253Z,48.87
2022-11-05T18:22:56.113Z,47.59
2022-11-05T18:25:22.911Z,48.77
2022-11-05T18:27:49.737Z,48.12
2022-11-05T18:30:17.042Z,49.95
2022-11-05T18:32:43.919Z,49.39
2022-11-05T18:35:12.039Z,49.12
2022-11-05T18:37:38.992Z,49.95
2022-11-05T18:40:06.360Z,49.84
2022-11-05T18:42:33.151Z,49.17
2022-11-05T18:45:00.336Z,50.29
2022-11-05T18:47:27.149Z,49.06
2022-11-05T18:49:56.014Z,48.47
2022-11-05T18:52:22.874Z,48.82
2022-11-05T18:54:50.114Z,48.93
2022-11-05T18:57:16.880Z,48.95
2022-11-05T18:59:44.032Z,49.41
2022-11-05T19:02:10.858Z,49.90
2022-11-05T19:04:37.795Z,50.06
2022-11-05T19:07:05.852Z,49.80
2022-11-05T19:09:33.837Z,50.90
2022-11-05T19:12:00.748Z,51.84
2022-11-05T19:14:29.074Z,50.69
2022-11-05T19:16:55.853Z,51.73
2022-11-05T19:19:23.571Z,51.45
2022-11-05T19:21:50.368Z,50.73
2022-11-05T19:24:17.310Z,50.56
2022-11-05T19:26:44.358Z,51.13
2022-11-05T19:29:12.223Z,51.04
2022-11-05T19:31:39.619Z,51.62
2022-11-05T19:34:06.497Z,52.98
2022-11-05T19:36:33.415Z,53.21
2022-11-05T19:39:00.473Z,53.95
2022-11-05T19:41:27.351Z,52.07
2022-11-05T19:43:54.517Z,52.97
2022-11-05T19:46:21.214Z,52.18
2022-11-05T19:48:48.295Z,52.43
2022-11-05T19:51:15.490Z,52.39
2022-11-05T19:53:41.963Z,52.06
2022-11-05T19:56:08.713Z,52.86
2022-11-05T19:58:36.645Z,52.22
2022-11-05T20:01:05.971Z,53.08
2022-11-05T20:03:33.196Z,53.63
2022-11-05T20:06:00.395Z,53.04
2022-11-05T20:08:27.668Z,53.61
2022-11-05T20:10:54.519Z,54.46
2022-11-05T20:13:23.325Z,55.25
2022-11-05T20:15:50.087Z,53.19
2022-11-05T20:18:16.560Z,53.11
2022-11-05T20:20:43.382Z,51.75
2022-11-05T20:23:11.118Z,52.74
2022-11-05T20:25:37.592Z,52.56
2022-11-05T20:28:04.479Z,52.91
2022-11-05T20:30:31.452Z,51.91
2022-11-05T20:32:58.309Z,50.17
2022-11-05T20:35:25.323Z,51.61
2022-11-05T20:37:54.124Z,51.76
2022-11-05T20:40:21.304Z,52.26
2022-11-05T20:42:48.922Z,52.29
2022-11-05T20:45:15.753Z,52.58
2022-11-05T20:47:42.532Z,52.73
2022-11-05T20:50:12.222Z,51.71
2022-11-05T20:52:39.066Z,51.59
2022-11-05T20:55:06.325Z,51.77
2022-11-05T20:57:34.590Z,51.20
2022-11-05T21:00:01.115Z,52.40
2022-11-05T21:02:29.060Z,52.54
2022-11-05T21:04:56.245Z,54.01
2022-11-05T21:07:26.271Z,53.85
2022-11-05T21:09:53.271Z,53.22
2022-11-05T21:12:20.657Z,53.83
2022-11-05T21:14:50.244Z,51.84
2022-11-05T21:17:18.038Z,51.27
2022-11-05T21:19:44.916Z,51.78
2022-11-05T21:22:11.949Z,52.59
2022-11-05T21:24:41.810Z,53.02
2022-11-05T21:27:08.393Z,52.91
2022-11-05T21:29:35.000Z,53.74
2022-11-05T21:32:02.800Z,53.52
2022-11-05T21:34:29.658Z,52.97
2022-11-05T21:36:56.075Z,53.70
2022-11-05T21:39:22.848Z,53.62
2022-11-05T21:41:50.044Z,52.63
2022-11-05T21:44:16.911Z,54.03
2022-11-05T21:46:43.851Z,53.60
2022-11-05T21:49:10.425Z,53.92
2022-11-05T21:51:36.893Z,51.92
2022-11-05T21:54:03.750Z,53.21
2022-11-05T21:56:30.646Z,54.08
2022-11-05T21:58:57.482Z,52.33
2022-11-05T22:01:23.976Z,51.02
2022-11-05T22:03:51.510Z,50.61
2022-11-05T22:06:17.938Z,51.50
2022-11-05T22:08:45.488Z,52.28
2022-11-05T22:11:12.601Z,53.81
2022-11-05T22:13:39.152Z,53.44
2022-11-05T22:16:05.821Z,52.31
2022-11-05T22:18:32.265Z,53.91
2022-11-05T22:21:01.311Z,54.81
2022-11-05T22:23:27.695Z,53.84
2022-11-05T22:25:55.818Z,53.25
2022-11-05T22:28:22.283Z,53.45
2022-11-05T22:30:49.729Z,53.80
2022-11-05T22:33:16.375Z,54.74
2022-11-05T22:35:42.721Z,53.75
2022-11-05T22:38:09.542Z,52.39
2022-11-05T22:40:36.331Z,53.00
2022-11-05T22:43:02.729Z,54.01
2022-11-05T22:45:29.084Z,54.73
2022-11-05T22:47:55.568Z,54.36
2022-11-05T22:50:21.982Z,55.41
2022-11-05T22:52:48.543Z,53.80
2022-11-05T22:55:15.621Z,54.41
2022-11-05T22:57:41.966Z,54.42
2022-11-05T23:00:09.364Z,53.67
2022-11-05T23:02:35.942Z,56.07
2022-11-05T23:05:03.409Z,54.27
2022-11-05T23:07:30.083Z,53.34
2022-11-05T23:09:56.656Z,52.34
2022-11-05T23:12:23.183Z,51.94
2022-11-05T23:14:49.827Z,54.54
2022-11-05T23:17:16.396Z,53.24
2022-11-05T23:19:42.803Z,52.47
2022-11-05T23:22:09.201Z,52.93
2022-11-05T23:24:35.616Z,55.68
2022-11-05T23:27:04.393Z,54.97
2022-11-05T23:29:30.806Z,54.62
2022-11-05T23:31:57.202Z,54.73
2022-11-05T23:34:23.590Z,54.83
2022-11-05T23:36:50.037Z,55.05
2022-11-05T23:39:16.537Z,53.24
2022-11-05T23:41:42.942Z,54.93
2022-11-05T23:44:09.320Z,56.07
2022-11-05T23:46:35.785Z,55.79
2022-11-05T23:49:02.435Z,54.53
2022-11-05T23:51:28.975Z,55.85
2022-11-05T23:53:55.701Z,55.04
2022-11-05T23:56:22.135Z,54.52
2022-11-05T23:58:48.996Z,54.19
